createdAt,value
2018-05-14T00:02:31.807Z,14.4
2018-05-14T00:08:01.088Z,14.4
2018-05-14T00:13:31.059Z,14.3
2018-05-14T00:19:00.232Z,14.3
2018-05-14T00:24:30.382Z,14.2
2018-05-14T00:29:59.514Z,14.2
2018-05-14T00:35:28.597Z,14.1
2018-05-14T00:40:59.423Z,14.1
2018-05-14T00:46:26.998Z,14.1
2018-05-14T00:51:55.979Z,14
2018-05-14T00:57:26.164Z,13.9
2018-05-14T01:02:56.209Z,13.9
2018-05-14T01:08:25.436Z,13.9
2018-05-14T01:13:55.357Z,13.8
2018-05-14T01:19:24.423Z,13.8
2018-05-14T01:24:53.632Z,13.7
2018-05-14T01:30:23.661Z,13.7
2018-05-14T01:35:53.685Z,13.7
2018-05-14T01:41:22.799Z,13.6
2018-05-14T01:46:51.844Z,13.6
2018-05-14T01:52:21.966Z,13.5
2018-05-14T01:57:51.978Z,13.5
2018-05-14T02:03:21.011Z,13.4
2018-05-14T02:08:50.148Z,13.4
2018-05-14T02:14:20.217Z,13.4
2018-05-14T02:19:49.190Z,13.4
2018-05-14T02:25:18.359Z,13.3
2018-05-14T02:30:47.243Z,13.3
2018-05-14T02:36:17.348Z,13.3
2018-05-14T02:41:46.667Z,13.3
2018-05-14T02:47:15.318Z,13.2
2018-05-14T02:52:45.392Z,13.2
2018-05-14T02:58:15.413Z,13.2
2018-05-14T03:03:45.409Z,13.1
2018-05-14T03:09:14.438Z,13.1
2018-05-14T03:14:44.420Z,13.1
2018-05-14T03:20:13.418Z,13.1
2018-05-14T03:25:43.460Z,13.1
2018-05-14T03:31:12.432Z,13
2018-05-14T03:36:41.566Z,13
2018-05-14T03:42:10.607Z,13
2018-05-14T03:47:39.461Z,13
2018-05-14T03:53:09.499Z,13
2018-05-14T03:58:38.500Z,13.1
2018-05-14T04:04:07.513Z,13.1
2018-05-14T04:09:36.493Z,13.1
2018-05-14T04:15:06.601Z,13.1
2018-05-14T04:20:35.535Z,13.1
2018-05-14T04:26:04.633Z,13.1
2018-05-14T04:31:33.592Z,13.2
2018-05-14T04:37:03.612Z,13.2
2018-05-14T04:42:33.738Z,13.3
2018-05-14T04:48:02.682Z,13.3
2018-05-14T04:53:32.738Z,13.4
2018-05-14T04:59:01.846Z,13.4
2018-05-14T05:04:30.791Z,13.5
2018-05-14T05:09:59.960Z,13.6
2018-05-14T05:15:29.210Z,13.7
2018-05-14T05:20:59.017Z,13.7
2018-05-14T05:26:28.100Z,13.8
2018-05-14T05:31:57.282Z,13.9
2018-05-14T05:37:27.259Z,14
2018-05-14T05:42:56.471Z,14.2
2018-05-14T05:48:25.499Z,14.3
2018-05-14T05:53:55.615Z,14.5
2018-05-14T05:59:25.923Z,14.6
2018-05-14T06:04:54.962Z,14.8
2018-05-14T06:10:25.250Z,15
2018-05-14T06:15:54.348Z,15.2
2018-05-14T06:21:23.717Z,15.4
2018-05-14T06:26:53.921Z,15.5
2018-05-14T06:32:24.138Z,15.7
2018-05-14T06:37:53.428Z,15.8
2018-05-14T06:43:23.759Z,16
2018-05-14T06:48:53.024Z,16.2
2018-05-14T06:54:23.469Z,16.4
2018-05-14T07:05:23.098Z,16.8
2018-05-14T07:10:53.756Z,17
2018-05-14T07:16:21.934Z,17.1
2018-05-14T07:21:52.411Z,17.3
2018-05-14T07:27:21.772Z,17.5
2018-05-14T07:32:51.346Z,17.7
2018-05-14T07:38:20.844Z,17.8
2018-05-14T07:43:50.620Z,18
2018-05-14T07:49:20.741Z,18
2018-05-14T07:54:51.262Z,18.1
2018-05-14T08:00:21.143Z,18.3
2018-05-14T08:05:51.596Z,18.5
2018-05-14T08:11:22.074Z,18.6
2018-05-14T08:22:21.360Z,18.8
2018-05-14T08:27:51.038Z,19
2018-05-14T08:33:21.632Z,19.1
2018-05-14T08:38:52.470Z,19.3
2018-05-14T08:49:52.749Z,19.6
2018-05-14T08:55:22.428Z,19.7
2018-05-14T09:00:52.366Z,19.8
2018-05-14T09:11:52.604Z,20.1
2018-05-14T09:17:23.381Z,20.3
2018-05-14T09:22:54.381Z,20.5
2018-05-14T09:28:23.961Z,20.7
2018-05-14T09:33:53.879Z,20.8
2018-05-14T09:39:24.613Z,20.9
2018-05-14T09:44:55.445Z,20.9
2018-05-14T09:50:26.986Z,21
2018-05-14T09:55:56.428Z,21
2018-05-14T10:01:26.024Z,21
2018-05-14T10:06:56.831Z,21
2018-05-14T10:12:27.661Z,21
2018-05-14T10:17:58.572Z,21.1
2018-05-14T10:23:28.414Z,21.2
2018-05-14T10:28:59.644Z,21.3
2018-05-14T10:34:30.377Z,21.4
2018-05-14T10:40:00.118Z,21.5
2018-05-14T10:45:29.967Z,21.5
2018-05-14T10:51:00.903Z,21.6
2018-05-14T10:56:30.780Z,21.7
2018-05-14T11:02:00.750Z,21.8
2018-05-14T11:07:31.763Z,21.8
2018-05-14T11:13:02.721Z,21.9
2018-05-14T11:18:33.541Z,21.9
2018-05-14T11:24:04.522Z,21.9
2018-05-14T11:29:35.512Z,22.1
2018-05-14T11:35:06.447Z,22.2
2018-05-14T11:40:36.494Z,22.2
2018-05-14T11:46:06.543Z,22.3
2018-05-14T11:51:36.438Z,22.3
2018-05-14T11:57:07.482Z,22.4
2018-05-14T12:02:37.584Z,22.5
2018-05-14T12:08:08.585Z,22.5
2018-05-14T12:13:39.591Z,22.5
2018-05-14T12:19:09.565Z,22.5
2018-05-14T12:24:40.577Z,22.5
2018-05-14T12:30:11.790Z,22.6
2018-05-14T12:35:41.697Z,22.7
2018-05-14T12:46:42.790Z,22.7
2018-05-14T12:52:14.081Z,22.6
2018-05-14T12:57:44.929Z,22.6
2018-05-14T13:03:14.951Z,22.6
2018-05-14T13:08:46.048Z,22.6
2018-05-14T13:14:16.072Z,22.6
2018-05-14T13:19:47.284Z,22.5
2018-05-14T13:25:17.121Z,22.5
2018-05-14T13:30:48.256Z,22.5
2018-05-14T13:36:18.229Z,22.6
2018-05-14T13:41:48.268Z,22.6
2018-05-14T13:47:18.354Z,22.7
2018-05-14T13:52:48.395Z,22.8
2018-05-14T13:58:19.485Z,22.9
2018-05-14T14:03:50.634Z,23
2018-05-14T14:09:20.979Z,23
2018-05-14T14:14:52.138Z,23.1
2018-05-14T14:20:23.104Z,23.1
2018-05-14T14:25:53.233Z,23.2
2018-05-14T14:58:54.923Z,23.3
2018-05-14T15:04:26.210Z,23.3
2018-05-14T15:09:56.197Z,23.3
2018-05-14T15:15:27.253Z,23.3
2018-05-14T15:20:58.749Z,23.3
2018-05-14T15:26:29.872Z,23.4
2018-05-14T15:31:59.890Z,23.3
2018-05-14T15:37:30.813Z,23.3
2018-05-14T15:43:01.363Z,23.3
2018-05-14T15:48:31.215Z,23.3
2018-05-14T15:54:02.658Z,23.3
2018-05-14T15:59:33.460Z,23.2
2018-05-14T16:05:03.970Z,23.2
2018-05-14T16:10:33.658Z,23.1
2018-05-14T16:16:03.772Z,23.1
2018-05-14T16:21:33.867Z,23.1
2018-05-14T16:27:04.985Z,23.1
2018-05-14T16:32:35.098Z,23.2
2018-05-14T16:38:06.249Z,23.2
2018-05-14T16:43:37.412Z,23.2
2018-05-14T16:49:07.496Z,23.2
2018-05-14T16:54:38.808Z,23.1
2018-05-14T17:00:09.986Z,23.1
2018-05-14T17:05:40.893Z,23
2018-05-14T17:11:10.965Z,22.9
2018-05-14T17:16:41.020Z,22.7
2018-05-14T17:22:11.022Z,22.5
2018-05-14T17:27:42.099Z,22.3
2018-05-14T17:33:13.037Z,22.1
2018-05-14T17:38:43.093Z,21.9
2018-05-14T17:44:13.462Z,21.8
2018-05-14T17:49:44.116Z,21.6
2018-05-14T17:55:15.015Z,21.4
2018-05-14T18:00:44.962Z,21.2
2018-05-14T18:06:14.739Z,21
2018-05-14T18:11:45.550Z,20.9
2018-05-14T18:17:16.520Z,20.7
2018-05-14T18:22:47.185Z,20.6
2018-05-14T18:28:17.995Z,20.4
2018-05-14T18:33:47.859Z,20.2
2018-05-14T18:39:18.567Z,20.1
2018-05-14T18:44:49.265Z,19.9
2018-05-14T18:50:19.023Z,19.8
2018-05-14T18:55:48.825Z,19.7
2018-05-14T19:01:18.689Z,19.6
2018-05-14T19:06:49.342Z,19.5
2018-05-14T19:12:20.156Z,19.4
2018-05-14T19:17:49.702Z,19.2
2018-05-14T19:23:19.328Z,19.1
2018-05-14T19:28:49.051Z,19
2018-05-14T19:34:19.346Z,18.9
2018-05-14T19:39:49.396Z,18.8
2018-05-14T19:45:20.136Z,18.7
2018-05-14T19:50:50.962Z,18.6
2018-05-14T19:56:20.482Z,18.5
2018-05-14T20:01:49.995Z,18.4
2018-05-14T20:07:20.531Z,18.3
2018-05-14T20:12:50.315Z,18.2
2018-05-14T20:18:19.743Z,18.1
2018-05-14T20:23:50.332Z,18
2018-05-14T20:29:19.905Z,18
2018-05-14T20:34:49.398Z,17.9
2018-05-14T20:40:20.032Z,17.8
2018-05-14T20:45:49.459Z,17.8
2018-05-14T20:51:20.203Z,17.7
2018-05-14T20:56:49.424Z,17.6
2018-05-14T21:02:18.941Z,17.5
2018-05-14T21:07:49.456Z,17.5
2018-05-14T21:13:18.846Z,17.4
2018-05-14T21:18:49.351Z,17.4
2018-05-14T21:24:20.049Z,17.3
2018-05-14T21:29:50.305Z,17.3
2018-05-14T21:35:20.726Z,17.2
2018-05-14T21:40:51.517Z,17.1
2018-05-14T21:46:20.673Z,17
2018-05-14T21:51:50.070Z,16.9
2018-05-14T21:57:20.674Z,16.8
2018-05-14T22:02:49.826Z,16.7
2018-05-14T22:08:20.503Z,16.6
2018-05-14T22:13:49.507Z,16.5
2018-05-14T22:19:18.865Z,16.4
2018-05-14T22:24:49.198Z,16.3
2018-05-14T22:30:18.777Z,16.2
2018-05-14T22:35:47.951Z,16.2
2018-05-14T22:41:17.191Z,16.1
2018-05-14T22:46:47.905Z,16.1
2018-05-14T22:52:16.956Z,16.1
2018-05-14T22:57:47.422Z,16.1
2018-05-14T23:03:16.546Z,16
2018-05-14T23:08:45.750Z,16
2018-05-14T23:14:15.099Z,15.9
2018-05-14T23:19:44.443Z,15.9
2018-05-14T23:25:13.668Z,15.8
2018-05-14T23:30:43.389Z,15.8
2018-05-14T23:36:12.246Z,15.7
2018-05-14T23:41:42.615Z,15.7
2018-05-14T23:47:11.842Z,15.6
2018-05-14T23:52:42.103Z,15.5
2018-05-14T23:58:11.420Z,15.5
